createdAt,value
2019-01-04T00:00:15.008Z,422.01
2019-01-04T00:01:15.835Z,422.76
2019-01-04T00:02:15.059Z,422.73
2019-01-04T00:03:16.190Z,423.86
2019-01-04T00:04:14.968Z,423.38
2019-01-04T00:05:15.040Z,422.58
2019-01-04T00:06:14.947Z,423.08
2019-01-04T00:07:14.967Z,423.52
2019-01-04T00:08:14.932Z,423.36
2019-01-04T00:09:14.923Z,423.16
2019-01-04T00:10:15.117Z,422.62
2019-01-04T00:11:14.928Z,423.46
2019-01-04T00:12:14.887Z,423.45
2019-01-04T00:13:14.873Z,424.01
2019-01-04T00:14:14.875Z,422.37
2019-01-04T00:15:14.859Z,423.90
2019-01-04T00:16:14.848Z,424.25
2019-01-04T00:17:14.818Z,423.45
2019-01-04T00:18:15.068Z,423.49
2019-01-04T00:19:14.801Z,423.53
2019-01-04T00:20:14.823Z,423.38
2019-01-04T00:21:14.809Z,423.85
2019-01-04T00:22:14.774Z,423.07
2019-01-04T00:23:14.812Z,424.52
2019-01-04T00:24:14.760Z,424.37
2019-01-04T00:25:14.806Z,423.73
2019-01-04T00:26:14.770Z,422.61
2019-01-04T00:27:14.740Z,423.08
2019-01-04T00:28:14.733Z,423.72
2019-01-04T00:29:14.717Z,423.91
2019-01-04T00:30:14.682Z,423.49
2019-01-04T00:31:14.698Z,424.22
2019-01-04T00:32:14.688Z,423.34
2019-01-04T00:33:14.683Z,424.31
2019-01-04T00:34:14.668Z,422.58
2019-01-04T00:35:14.735Z,423.52
2019-01-04T00:36:14.635Z,423.19
2019-01-04T00:37:14.622Z,424.39
2019-01-04T00:38:14.624Z,424.03
2019-01-04T00:39:14.634Z,424.45
2019-01-04T00:40:14.588Z,423.56
2019-01-04T00:41:14.942Z,422.32
2019-01-04T00:42:14.570Z,423.93
2019-01-04T00:43:14.584Z,423.46
2019-01-04T00:44:14.559Z,423.20
2019-01-04T00:45:14.576Z,423.05
2019-01-04T00:46:14.539Z,422.95
2019-01-04T00:47:14.523Z,425.70
2019-01-04T00:48:14.534Z,422.92
2019-01-04T00:49:14.530Z,422.63
2019-01-04T00:50:14.532Z,423.81
2019-01-04T00:51:14.503Z,423.78
2019-01-04T00:52:14.496Z,423.93
2019-01-04T00:53:14.464Z,424.15
2019-01-04T00:54:14.455Z,424.02
2019-01-04T00:55:15.299Z,423.12
2019-01-04T00:56:14.457Z,423.58
2019-01-04T00:57:14.423Z,424.92
2019-01-04T00:58:14.422Z,423.44
2019-01-04T00:59:14.386Z,423.50
2019-01-04T01:00:14.403Z,423.16
2019-01-04T01:01:14.402Z,423.89
2019-01-04T01:02:14.366Z,423.19
2019-01-04T01:03:14.349Z,423.58
2019-01-04T01:04:14.347Z,423.13
2019-01-04T01:05:14.343Z,423.45
2019-01-04T01:06:14.347Z,422.76
2019-01-04T01:07:15.528Z,422.16
2019-01-04T01:08:14.316Z,422.32
2019-01-04T01:09:14.360Z,422.64
2019-01-04T01:10:14.273Z,422.53
2019-01-04T01:11:14.279Z,424.53
2019-01-04T01:12:14.267Z,423.83
2019-01-04T01:13:14.259Z,422.63
2019-01-04T01:14:14.246Z,423.38
2019-01-04T01:15:14.258Z,422.77
2019-01-04T01:16:14.214Z,423.65
2019-01-04T01:17:14.225Z,424.67
2019-01-04T01:18:14.197Z,423.16
2019-01-04T01:19:14.219Z,423.72
2019-01-04T01:20:14.163Z,423.71
2019-01-04T01:21:14.162Z,423.30
2019-01-04T01:22:14.177Z,423.45
2019-01-04T01:23:14.143Z,422.90
2019-01-04T01:24:14.176Z,424.06
2019-01-04T01:25:14.191Z,423.19
2019-01-04T01:26:14.124Z,423.04
2019-01-04T01:27:14.141Z,423.04
2019-01-04T01:28:14.096Z,423.52
2019-01-04T01:29:14.091Z,423.17
2019-01-04T01:30:14.107Z,424.00
2019-01-04T01:31:14.070Z,423.09
2019-01-04T01:32:14.086Z,423.62
2019-01-04T01:33:14.054Z,422.86
2019-01-04T01:34:14.042Z,422.67
2019-01-04T01:35:14.027Z,422.59
2019-01-04T01:36:14.029Z,422.98
2019-01-04T01:37:14.026Z,422.85
2019-01-04T01:38:14.029Z,423.08
2019-01-04T01:39:13.983Z,423.45
2019-01-04T01:40:14.009Z,422.95
2019-01-04T01:41:13.975Z,423.95
2019-01-04T01:42:13.958Z,423.30
2019-01-04T01:43:13.947Z,422.82
2019-01-04T01:44:13.954Z,422.33
2019-01-04T01:45:13.949Z,422.22
2019-01-04T01:46:13.929Z,422.50
2019-01-04T01:47:13.903Z,422.18
2019-01-04T01:48:13.902Z,423.35
2019-01-04T01:49:13.886Z,422.82
2019-01-04T01:50:13.937Z,423.27
2019-01-04T01:51:13.885Z,422.64
2019-01-04T01:52:13.858Z,422.88
2019-01-04T01:53:13.832Z,422.72
2019-01-04T01:54:13.851Z,423.03
2019-01-04T01:55:13.823Z,422.71
2019-01-04T01:56:13.827Z,422.32
2019-01-04T01:57:13.844Z,421.85
2019-01-04T01:58:13.788Z,422.56
2019-01-04T01:59:13.799Z,422.18
2019-01-04T02:00:13.766Z,421.18
2019-01-04T02:01:13.773Z,422.52
2019-01-04T02:02:13.794Z,421.56
2019-01-04T02:03:13.734Z,421.81
2019-01-04T02:04:13.712Z,422.30
2019-01-04T02:05:13.739Z,422.36
2019-01-04T02:06:13.723Z,422.19
2019-01-04T02:07:13.706Z,422.32
2019-01-04T02:08:13.683Z,421.89
2019-01-04T02:09:13.660Z,422.76
2019-01-04T02:10:13.670Z,423.70
2019-01-04T02:11:13.656Z,421.68
2019-01-04T02:12:13.677Z,421.77
2019-01-04T02:13:22.894Z,422.13
2019-01-04T02:14:13.629Z,422.80
2019-01-04T02:15:13.601Z,422.35
2019-01-04T02:16:13.602Z,422.85
2019-01-04T02:17:13.622Z,421.55
2019-01-04T02:18:13.572Z,421.77
2019-01-04T02:19:13.603Z,422.55
2019-01-04T02:20:13.585Z,421.60
2019-01-04T02:21:13.548Z,421.21
2019-01-04T02:22:13.571Z,421.38
2019-01-04T02:23:13.582Z,421.84
2019-01-04T02:24:13.533Z,422.18
2019-01-04T02:25:13.534Z,424.56
2019-01-04T02:26:13.520Z,421.68
2019-01-04T02:27:13.528Z,422.63
2019-01-04T02:28:13.487Z,422.38
2019-01-04T02:29:13.458Z,423.05
2019-01-04T02:30:13.476Z,421.96
2019-01-04T02:31:13.458Z,422.55
2019-01-04T02:32:13.485Z,422.52
2019-01-04T02:33:13.483Z,422.34
2019-01-04T02:34:13.573Z,423.19
2019-01-04T02:35:13.407Z,423.44
2019-01-04T02:36:13.472Z,421.74
2019-01-04T02:37:13.409Z,421.50
2019-01-04T02:38:13.402Z,421.37
2019-01-04T02:39:13.439Z,423.11
2019-01-04T02:40:13.405Z,421.72
2019-01-04T02:41:13.366Z,423.90
2019-01-04T02:42:13.362Z,422.35
2019-01-04T02:43:13.382Z,422.19
2019-01-04T02:44:13.325Z,422.55
2019-01-04T02:45:13.317Z,423.34
2019-01-04T02:46:13.321Z,423.21
2019-01-04T02:47:13.346Z,421.52
2019-01-04T02:48:13.357Z,422.66
2019-01-04T02:49:13.331Z,422.74
2019-01-04T02:50:13.284Z,422.45
2019-01-04T02:51:13.290Z,421.85
2019-01-04T02:52:13.225Z,422.94
2019-01-04T02:53:13.224Z,422.94
2019-01-04T02:54:13.259Z,422.60
2019-01-04T02:55:13.262Z,422.24
2019-01-04T02:56:13.210Z,422.42
2019-01-04T02:57:13.198Z,421.93
2019-01-04T02:58:13.216Z,421.75
2019-01-04T02:59:13.161Z,421.54
2019-01-04T03:00:13.182Z,422.99
2019-01-04T03:01:13.180Z,421.61
2019-01-04T03:02:13.151Z,422.47
2019-01-04T03:03:13.169Z,422.64
2019-01-04T03:04:13.113Z,426.12
2019-01-04T03:05:13.139Z,421.71
2019-01-04T03:06:13.141Z,424.16
2019-01-04T03:07:13.118Z,423.01
2019-01-04T03:08:13.070Z,421.26
2019-01-04T03:09:13.072Z,422.03
2019-01-04T03:10:13.065Z,422.72
2019-01-04T03:11:13.037Z,422.06
2019-01-04T03:12:13.091Z,423.42
2019-01-04T03:13:13.038Z,422.67
2019-01-04T03:14:13.042Z,422.45
2019-01-04T03:15:13.039Z,421.81
2019-01-04T03:16:13.010Z,422.75
2019-01-04T03:17:13.070Z,421.01
2019-01-04T03:18:12.992Z,422.14
2019-01-04T03:19:12.975Z,422.02
2019-01-04T03:20:12.988Z,422.53
2019-01-04T03:21:13.040Z,421.54
2019-01-04T03:22:12.972Z,422.37
2019-01-04T03:23:12.939Z,422.13
2019-01-04T03:24:12.932Z,421.55
2019-01-04T03:25:13.003Z,422.26
2019-01-04T03:26:12.891Z,423.27
2019-01-04T03:27:12.918Z,421.53
2019-01-04T03:28:12.933Z,422.67
2019-01-04T03:29:12.948Z,423.10
2019-01-04T03:30:12.931Z,421.15
2019-01-04T03:31:12.857Z,422.39
2019-01-04T03:32:12.869Z,421.07
2019-01-04T03:33:12.840Z,420.52
2019-01-04T03:34:12.853Z,422.39
2019-01-04T03:35:12.813Z,421.46
2019-01-04T03:36:12.789Z,421.60
2019-01-04T03:37:12.807Z,421.50
2019-01-04T03:38:12.772Z,421.24
2019-01-04T03:39:12.813Z,421.42
2019-01-04T03:40:12.793Z,421.93
2019-01-04T03:41:12.765Z,421.08
2019-01-04T03:42:12.740Z,422.04
2019-01-04T03:43:12.721Z,422.15
2019-01-04T03:44:12.756Z,420.75
2019-01-04T03:45:12.710Z,421.77
2019-01-04T03:46:12.696Z,421.14
2019-01-04T03:47:12.678Z,422.09
2019-01-04T03:48:12.708Z,422.48
2019-01-04T03:49:12.686Z,422.18
2019-01-04T03:50:12.696Z,422.26
2019-01-04T03:51:12.647Z,421.81
2019-01-04T03:52:12.644Z,423.07
2019-01-04T03:53:12.646Z,422.62
2019-01-04T03:54:12.615Z,421.38
2019-01-04T03:55:12.620Z,421.87
2019-01-04T03:56:12.615Z,421.92
2019-01-04T03:57:12.636Z,422.47
2019-01-04T03:58:12.597Z,422.52
2019-01-04T03:59:12.632Z,422.86
2019-01-04T04:00:12.655Z,423.17
2019-01-04T04:01:12.571Z,421.82
2019-01-04T04:02:12.577Z,422.96
2019-01-04T04:03:12.599Z,423.64
2019-01-04T04:04:12.500Z,423.12
2019-01-04T04:05:12.496Z,421.51
2019-01-04T04:06:12.566Z,422.70
2019-01-04T04:07:12.508Z,422.79
2019-01-04T04:08:12.451Z,421.98
2019-01-04T04:09:12.446Z,422.43
2019-01-04T04:10:12.442Z,421.57
2019-01-04T04:11:12.464Z,423.17
2019-01-04T04:12:12.543Z,420.98
2019-01-04T04:13:12.462Z,421.95
2019-01-04T04:14:12.455Z,422.20
2019-01-04T04:15:12.385Z,422.21
2019-01-04T04:16:12.509Z,422.08
2019-01-04T04:17:12.438Z,421.89
2019-01-04T04:18:12.430Z,421.70
2019-01-04T04:19:12.409Z,422.18
2019-01-04T04:20:12.339Z,422.42
2019-01-04T04:21:12.383Z,421.87
2019-01-04T04:22:12.365Z,421.81
2019-01-04T04:23:12.330Z,421.84
2019-01-04T04:24:12.339Z,422.84
2019-01-04T04:25:12.328Z,421.52
2019-01-04T04:26:12.319Z,423.08
2019-01-04T04:27:12.300Z,421.92
2019-01-04T04:28:12.315Z,421.03
2019-01-04T04:29:12.269Z,422.38
2019-01-04T04:30:12.252Z,421.31
2019-01-04T04:31:12.243Z,423.39
2019-01-04T04:32:12.233Z,422.33
2019-01-04T04:33:12.211Z,421.74
2019-01-04T04:34:12.271Z,422.51
2019-01-04T04:35:12.200Z,422.31
2019-01-04T04:36:12.173Z,421.40
2019-01-04T04:37:12.174Z,421.79
2019-01-04T04:38:12.211Z,421.45
2019-01-04T04:39:12.170Z,421.92
2019-01-04T04:40:12.159Z,422.24
2019-01-04T04:41:12.135Z,422.43
2019-01-04T04:42:12.121Z,422.83
2019-01-04T04:43:12.135Z,421.65
2019-01-04T04:44:12.135Z,423.88
2019-01-04T04:45:12.115Z,422.14
2019-01-04T04:46:12.079Z,422.46
2019-01-04T04:47:12.097Z,421.55
2019-01-04T04:48:12.091Z,422.21
2019-01-04T04:49:12.047Z,422.43
2019-01-04T04:50:12.083Z,421.08
2019-01-04T04:51:12.031Z,421.05
2019-01-04T04:52:12.056Z,421.56
2019-01-04T04:53:12.010Z,422.51
2019-01-04T04:54:12.017Z,421.14
2019-01-04T04:55:11.992Z,422.18
2019-01-04T04:56:12.042Z,421.90
2019-01-04T04:57:12.007Z,421.94
2019-01-04T04:58:11.968Z,421.53
2019-01-04T04:59:12.030Z,420.75
2019-01-04T05:00:11.955Z,420.68
2019-01-04T05:01:11.920Z,421.98
2019-01-04T05:02:11.975Z,421.20
2019-01-04T05:03:11.909Z,421.27
2019-01-04T05:04:11.901Z,421.34
2019-01-04T05:05:11.892Z,421.42
2019-01-04T05:06:11.908Z,422.40
2019-01-04T05:07:11.956Z,421.82
2019-01-04T05:08:12.156Z,423.08
2019-01-04T05:09:11.855Z,420.85
2019-01-04T05:10:11.894Z,421.59
2019-01-04T05:11:11.824Z,422.61
2019-01-04T05:12:11.819Z,422.15
2019-01-04T05:13:11.827Z,422.47
2019-01-04T05:14:11.807Z,421.43
2019-01-04T05:15:11.802Z,421.69
2019-01-04T05:16:11.773Z,423.45
2019-01-04T05:17:11.776Z,422.15
2019-01-04T05:18:11.766Z,422.78
2019-01-04T05:19:11.730Z,421.49
2019-01-04T05:20:11.735Z,421.60
2019-01-04T05:21:11.758Z,422.48
2019-01-04T05:22:11.775Z,422.68
2019-01-04T05:23:11.802Z,422.28
2019-01-04T05:24:11.690Z,422.47
2019-01-04T05:25:11.688Z,422.02
2019-01-04T05:26:11.743Z,423.35
2019-01-04T05:27:11.694Z,422.05
2019-01-04T05:28:11.670Z,422.15
2019-01-04T05:29:11.668Z,423.36
2019-01-04T05:30:11.668Z,422.60
2019-01-04T05:31:11.631Z,421.84
2019-01-04T05:32:11.693Z,422.73
2019-01-04T05:33:11.617Z,421.87
2019-01-04T05:34:11.597Z,422.38
2019-01-04T05:35:11.604Z,422.23
2019-01-04T05:36:11.590Z,422.44
2019-01-04T05:37:11.581Z,421.59
2019-01-04T05:38:11.652Z,421.59
2019-01-04T05:39:11.523Z,423.59
2019-01-04T05:40:11.528Z,421.62
2019-01-04T05:41:11.495Z,423.48
2019-01-04T05:42:11.540Z,421.96
2019-01-04T05:43:11.585Z,421.31
2019-01-04T05:44:11.511Z,422.50
2019-01-04T05:45:11.579Z,422.09
2019-01-04T05:46:11.564Z,423.20
2019-01-04T05:47:12.327Z,421.96
2019-01-04T05:48:11.460Z,421.95
2019-01-04T05:49:11.429Z,422.76
2019-01-04T05:50:11.453Z,421.47
2019-01-04T05:51:11.447Z,422.09
2019-01-04T05:52:11.391Z,422.75
2019-01-04T05:53:11.402Z,422.95
2019-01-04T05:54:11.420Z,422.54
2019-01-04T05:55:11.396Z,422.21
2019-01-04T05:56:11.413Z,422.15
2019-01-04T05:57:11.346Z,422.46
2019-01-04T05:58:11.407Z,422.37
2019-01-04T05:59:11.337Z,423.05
2019-01-04T06:00:11.345Z,423.24
2019-01-04T06:01:11.392Z,422.43
2019-01-04T06:02:11.309Z,422.25
2019-01-04T06:03:11.344Z,422.49
2019-01-04T06:04:11.294Z,423.01
2019-01-04T06:05:11.284Z,422.67
2019-01-04T06:06:11.266Z,422.97
2019-01-04T06:07:11.253Z,423.11
2019-01-04T06:08:11.302Z,421.79
2019-01-04T06:09:11.271Z,422.16
2019-01-04T06:10:11.291Z,421.71
2019-01-04T06:11:11.235Z,422.63
2019-01-04T06:12:11.239Z,423.34
2019-01-04T06:13:11.264Z,423.15
2019-01-04T06:14:11.300Z,423.41
2019-01-04T06:15:11.426Z,423.82
2019-01-04T06:16:11.168Z,422.97
2019-01-04T06:17:11.209Z,422.56
2019-01-04T06:18:11.161Z,423.40
2019-01-04T06:19:11.231Z,425.84
2019-01-04T06:20:11.186Z,422.89
2019-01-04T06:21:11.279Z,423.63
2019-01-04T06:22:11.106Z,422.99
2019-01-04T06:23:11.164Z,422.46
2019-01-04T06:24:11.085Z,423.02
2019-01-04T06:25:11.082Z,423.60
2019-01-04T06:26:11.112Z,423.71
2019-01-04T06:27:11.094Z,423.11
2019-01-04T06:28:11.107Z,423.21
2019-01-04T06:29:11.021Z,423.52
2019-01-04T06:30:11.011Z,422.94
2019-01-04T06:31:11.013Z,423.41
2019-01-04T06:32:11.001Z,423.19
2019-01-04T06:33:10.981Z,424.72
2019-01-04T06:34:10.988Z,422.85
2019-01-04T06:35:10.996Z,423.19
2019-01-04T06:36:10.962Z,423.66
2019-01-04T06:37:11.010Z,423.89
2019-01-04T06:38:11.228Z,422.88
2019-01-04T06:39:11.088Z,423.62
2019-01-04T06:40:10.923Z,423.25
2019-01-04T06:41:10.929Z,424.37
2019-01-04T06:42:10.936Z,423.78
2019-01-04T06:43:10.871Z,423.40
2019-01-04T06:44:10.877Z,424.16
2019-01-04T06:45:10.854Z,423.90
2019-01-04T06:46:10.846Z,423.66
2019-01-04T06:47:10.887Z,423.82
2019-01-04T06:48:11.122Z,424.48
2019-01-04T06:49:10.846Z,423.73
2019-01-04T06:50:10.829Z,424.66
2019-01-04T06:51:10.801Z,423.06
2019-01-04T06:52:10.804Z,423.22
2019-01-04T06:53:10.773Z,423.38
2019-01-04T06:54:10.775Z,423.56
2019-01-04T06:55:10.910Z,423.96
2019-01-04T06:56:10.739Z,423.97
2019-01-04T06:57:10.717Z,423.94
2019-01-04T06:58:10.947Z,423.62
2019-01-04T06:59:10.894Z,424.90
2019-01-04T07:00:11.826Z,423.07
2019-01-04T07:01:10.738Z,423.91
2019-01-04T07:02:10.676Z,423.24
2019-01-04T07:03:10.681Z,423.73
2019-01-04T07:04:10.714Z,423.63
2019-01-04T07:05:10.675Z,422.69
2019-01-04T07:06:10.674Z,423.45
2019-01-04T07:07:10.711Z,423.11
2019-01-04T07:08:10.674Z,424.15
2019-01-04T07:09:10.776Z,423.46
2019-01-04T07:10:10.676Z,423.24
2019-01-04T07:11:10.593Z,424.06
2019-01-04T07:12:10.614Z,424.67
2019-01-04T07:13:10.583Z,424.12
2019-01-04T07:14:10.647Z,423.97
2019-01-04T07:15:10.540Z,424.27
2019-01-04T07:16:10.539Z,423.93
2019-01-04T07:17:11.347Z,423.18
2019-01-04T07:18:10.533Z,425.14
2019-01-04T07:19:10.513Z,423.47
2019-01-04T07:20:10.512Z,423.17
2019-01-04T07:21:10.526Z,422.89
2019-01-04T07:22:10.473Z,423.72
2019-01-04T07:23:10.490Z,422.94
2019-01-04T07:24:10.528Z,423.41
2019-01-04T07:25:10.513Z,424.57
2019-01-04T07:26:10.505Z,424.26
2019-01-04T07:27:10.495Z,423.73
2019-01-04T07:28:10.413Z,423.99
2019-01-04T07:29:10.394Z,424.32
2019-01-04T07:30:10.396Z,422.82
2019-01-04T07:31:10.419Z,424.11
2019-01-04T07:32:10.396Z,424.56
2019-01-04T07:33:10.375Z,423.33
2019-01-04T07:34:10.342Z,422.88
2019-01-04T07:35:10.350Z,423.80
2019-01-04T07:36:10.338Z,424.17
2019-01-04T07:37:10.387Z,423.75
2019-01-04T07:38:10.329Z,424.74
2019-01-04T07:39:10.292Z,423.31
2019-01-04T07:40:10.266Z,423.06
2019-01-04T07:41:10.290Z,423.05
2019-01-04T07:42:10.265Z,422.60
2019-01-04T07:43:16.295Z,424.56
2019-01-04T07:44:11.265Z,423.51
2019-01-04T07:45:10.207Z,423.13
2019-01-04T07:46:10.223Z,424.67
2019-01-04T07:47:10.231Z,424.44
2019-01-04T07:48:10.255Z,424.20
2019-01-04T07:49:10.199Z,424.02
2019-01-04T07:50:10.254Z,425.39
2019-01-04T07:51:10.170Z,425.13
2019-01-04T07:52:10.133Z,423.57
2019-01-04T07:53:10.160Z,422.93
2019-01-04T07:54:10.147Z,424.74
2019-01-04T07:55:10.150Z,424.90
2019-01-04T07:56:10.123Z,423.87
2019-01-04T07:57:10.153Z,424.18
2019-01-04T07:58:10.156Z,423.55
2019-01-04T07:59:10.094Z,423.84
2019-01-04T08:00:10.065Z,425.41
2019-01-04T08:01:10.037Z,425.33
2019-01-04T08:02:10.050Z,425.85
2019-01-04T08:03:10.065Z,424.84
2019-01-04T08:04:10.042Z,425.34
2019-01-04T08:05:10.038Z,424.15
2019-01-04T08:06:10.025Z,423.35
2019-01-04T08:07:10.100Z,423.53
2019-01-04T08:08:10.001Z,424.00
2019-01-04T08:09:09.977Z,424.17
2019-01-04T08:10:10.037Z,424.35
2019-01-04T08:11:10.140Z,425.15
2019-01-04T08:12:09.959Z,424.15
2019-01-04T08:13:20.476Z,424.50
2019-01-04T08:14:10.005Z,424.02
2019-01-04T08:15:10.759Z,425.82
2019-01-04T08:16:09.895Z,424.36
2019-01-04T08:17:09.918Z,425.97
2019-01-04T08:18:09.932Z,423.87
2019-01-04T08:19:09.888Z,425.25
2019-01-04T08:20:09.873Z,423.71
2019-01-04T08:21:09.878Z,424.42
2019-01-04T08:22:09.862Z,424.88
2019-01-04T08:23:09.876Z,424.42
2019-01-04T08:24:09.825Z,426.21
2019-01-04T08:25:09.831Z,423.09
2019-01-04T08:26:09.816Z,425.31
2019-01-04T08:27:09.800Z,425.19
2019-01-04T08:28:09.779Z,425.68
2019-01-04T08:29:10.793Z,424.69
2019-01-04T08:30:09.750Z,425.92
2019-01-04T08:31:09.734Z,423.95
2019-01-04T08:32:09.732Z,423.87
2019-01-04T08:33:09.793Z,423.97
2019-01-04T08:34:10.123Z,425.13
2019-01-04T08:35:09.960Z,423.91
2019-01-04T08:36:09.729Z,423.92
2019-01-04T08:37:10.192Z,424.14
2019-01-04T08:38:09.884Z,424.27
2019-01-04T08:39:09.977Z,425.42
2019-01-04T08:40:09.804Z,424.07
2019-01-04T08:41:09.765Z,424.18
2019-01-04T08:42:09.654Z,425.51
2019-01-04T08:43:09.631Z,425.41
2019-01-04T08:44:09.886Z,424.08
2019-01-04T08:45:09.651Z,425.10
2019-01-04T08:46:09.616Z,424.12
2019-01-04T08:47:09.619Z,424.23
2019-01-04T08:48:09.596Z,425.04
2019-01-04T08:49:09.682Z,424.64
2019-01-04T08:50:09.562Z,424.30
2019-01-04T08:51:09.613Z,425.05
2019-01-04T08:52:09.523Z,423.95
2019-01-04T08:53:09.518Z,424.28
2019-01-04T08:54:09.501Z,423.45
2019-01-04T08:55:09.529Z,424.82
2019-01-04T08:56:09.525Z,424.80
2019-01-04T08:57:09.510Z,426.55
2019-01-04T08:58:09.461Z,425.69
2019-01-04T08:59:09.449Z,424.23
2019-01-04T09:00:09.474Z,423.36
2019-01-04T09:01:09.438Z,423.02
2019-01-04T09:02:09.426Z,424.49
2019-01-04T09:03:09.452Z,424.04
2019-01-04T09:04:09.388Z,424.28
2019-01-04T09:05:09.391Z,424.16
2019-01-04T09:06:09.373Z,426.34
2019-01-04T09:07:09.398Z,423.91
2019-01-04T09:08:09.371Z,424.05
2019-01-04T09:09:09.396Z,424.48
2019-01-04T09:10:09.390Z,424.75
2019-01-04T09:11:09.354Z,423.32
2019-01-04T09:12:09.316Z,423.70
2019-01-04T09:13:09.342Z,423.42
2019-01-04T09:14:09.356Z,423.83
2019-01-04T09:15:09.283Z,425.27
2019-01-04T09:16:09.326Z,425.51
2019-01-04T09:17:09.402Z,423.97
2019-01-04T09:18:09.253Z,424.69
2019-01-04T09:19:09.281Z,424.88
2019-01-04T09:20:09.300Z,424.48
2019-01-04T09:21:09.247Z,425.50
2019-01-04T09:22:09.232Z,424.66
2019-01-04T09:23:09.259Z,425.17
2019-01-04T09:24:09.310Z,425.40
2019-01-04T09:25:09.227Z,423.50
2019-01-04T09:26:09.206Z,425.21
2019-01-04T09:27:09.870Z,425.48
2019-01-04T09:28:09.149Z,424.41
2019-01-04T09:29:09.167Z,425.93
2019-01-04T09:30:09.343Z,426.10
2019-01-04T09:31:09.153Z,425.77
2019-01-04T09:32:09.189Z,425.12
2019-01-04T09:33:09.910Z,425.24
2019-01-04T09:34:09.133Z,424.44
2019-01-04T09:35:09.156Z,424.20
2019-01-04T09:36:09.126Z,424.41
2019-01-04T09:37:09.116Z,424.68
2019-01-04T09:38:09.230Z,425.19
2019-01-04T09:39:09.302Z,424.61
2019-01-04T09:40:09.232Z,425.45
2019-01-04T09:41:09.326Z,425.07
2019-01-04T09:42:09.394Z,426.25
2019-01-04T09:43:09.052Z,426.23
2019-01-04T09:44:09.026Z,425.19
2019-01-04T09:45:09.029Z,424.85
2019-01-04T09:46:09.039Z,423.82
2019-01-04T09:47:08.979Z,424.49
2019-01-04T09:48:09.001Z,424.13
2019-01-04T09:49:08.950Z,426.23
2019-01-04T09:50:09.894Z,425.19
2019-01-04T09:51:09.044Z,425.13
2019-01-04T09:52:08.963Z,425.75
2019-01-04T09:53:08.970Z,425.39
2019-01-04T09:54:09.091Z,424.00
2019-01-04T09:55:08.922Z,427.01
2019-01-04T09:56:08.885Z,425.69
2019-01-04T09:57:08.866Z,425.51
2019-01-04T09:58:08.915Z,425.21
2019-01-04T09:59:08.847Z,424.80
2019-01-04T10:00:09.098Z,424.78
2019-01-04T10:01:08.901Z,425.10
2019-01-04T10:02:08.925Z,425.24
2019-01-04T10:03:09.349Z,426.91
2019-01-04T10:04:08.786Z,425.45
2019-01-04T10:05:08.798Z,424.75
2019-01-04T10:06:08.798Z,424.95
2019-01-04T10:07:08.881Z,424.98
2019-01-04T10:08:08.971Z,423.93
2019-01-04T10:09:08.769Z,425.00
2019-01-04T10:10:08.779Z,424.66
2019-01-04T10:11:08.716Z,425.46
2019-01-04T10:12:08.703Z,427.34
2019-01-04T10:13:08.918Z,423.96
2019-01-04T10:14:08.773Z,424.48
2019-01-04T10:15:08.675Z,425.73
2019-01-04T10:16:09.251Z,425.58
2019-01-04T10:17:08.731Z,426.42
2019-01-04T10:18:08.666Z,424.24
2019-01-04T10:19:08.814Z,426.58
2019-01-04T10:20:09.966Z,425.18
2019-01-04T10:21:08.719Z,425.10
2019-01-04T10:22:08.655Z,424.55
2019-01-04T10:23:08.867Z,427.73
2019-01-04T10:24:08.925Z,426.64
2019-01-04T10:25:08.655Z,424.76
2019-01-04T10:26:08.573Z,425.32
2019-01-04T10:27:08.558Z,425.24
2019-01-04T10:28:09.395Z,424.81
2019-01-04T10:29:09.396Z,425.25
2019-01-04T10:30:08.516Z,425.10
2019-01-04T10:31:08.607Z,425.36
2019-01-04T10:32:08.587Z,424.85
2019-01-04T10:33:08.533Z,426.91
2019-01-04T10:34:08.504Z,426.17
2019-01-04T10:35:10.700Z,424.41
2019-01-04T10:36:08.603Z,426.67
2019-01-04T10:37:08.824Z,424.49
2019-01-04T10:38:08.714Z,423.93
2019-01-04T10:39:08.514Z,424.08
2019-01-04T10:40:11.242Z,426.66
2019-01-04T10:41:10.291Z,425.98
2019-01-04T10:42:08.814Z,426.80
2019-01-04T10:43:08.647Z,426.80
2019-01-04T10:44:09.703Z,425.83
2019-01-04T10:45:09.401Z,424.46
2019-01-04T10:46:08.982Z,424.62
2019-01-04T10:47:08.443Z,426.30
2019-01-04T10:48:08.374Z,426.38
2019-01-04T10:49:08.481Z,425.12
2019-01-04T10:50:08.316Z,426.55
2019-01-04T10:51:08.615Z,426.62
2019-01-04T10:52:08.497Z,424.85
2019-01-04T10:53:08.326Z,424.60
2019-01-04T10:54:08.273Z,428.80
2019-01-04T10:55:08.281Z,424.33
2019-01-04T10:56:08.276Z,425.10
2019-01-04T10:57:08.240Z,425.96
2019-01-04T10:58:08.432Z,424.82
2019-01-04T10:59:08.236Z,424.66
2019-01-04T11:00:17.516Z,424.23
2019-01-04T11:01:17.525Z,424.76
2019-01-04T11:02:17.608Z,427.07
2019-01-04T11:04:36.942Z,424.39
2019-01-04T11:06:48.937Z,422.80
2019-01-04T11:07:48.053Z,425.72
2019-01-04T11:08:48.380Z,424.41
2019-01-04T11:09:49.471Z,424.20
2019-01-04T11:10:47.724Z,426.28
2019-01-04T11:11:47.548Z,426.60
2019-01-04T11:12:47.552Z,425.09
2019-01-04T11:13:47.522Z,423.95
2019-01-04T11:14:47.508Z,425.15
2019-01-04T11:15:47.493Z,424.35
2019-01-04T11:16:48.293Z,427.26
2019-01-04T11:17:48.294Z,425.03
2019-01-04T11:18:47.436Z,425.69
2019-01-04T11:19:47.525Z,426.83
2019-01-04T11:20:48.382Z,426.42
2019-01-04T11:23:04.116Z,424.30
2019-01-04T11:24:04.127Z,424.84
2019-01-04T11:25:04.074Z,425.00
2019-01-04T11:26:04.070Z,425.18
2019-01-04T11:27:04.789Z,424.62
2019-01-04T11:28:04.756Z,424.64
2019-01-04T11:29:04.002Z,425.12
2019-01-04T11:30:03.981Z,423.33
2019-01-04T11:31:03.967Z,426.54
2019-01-04T11:32:04.748Z,425.41
2019-01-04T11:33:03.949Z,425.03
2019-01-04T11:34:04.767Z,425.92
2019-01-04T11:35:04.070Z,423.76
2019-01-04T11:36:04.786Z,426.16
2019-01-04T11:37:03.874Z,426.48
2019-01-04T11:38:03.845Z,425.49
2019-01-04T11:39:03.911Z,425.76
2019-01-04T11:40:03.880Z,425.86
2019-01-04T11:41:03.860Z,426.14
2019-01-04T11:42:05.248Z,425.70
2019-01-04T11:43:04.747Z,426.89
2019-01-04T11:44:04.297Z,424.91
2019-01-04T11:45:03.824Z,426.61
2019-01-04T11:46:03.893Z,425.25
2019-01-04T11:47:03.807Z,424.85
2019-01-04T11:48:03.891Z,425.41
2019-01-04T11:49:06.360Z,425.24
2019-01-04T11:50:04.747Z,425.59
2019-01-04T11:51:04.026Z,426.50
2019-01-04T11:52:03.716Z,425.11
2019-01-04T11:53:03.770Z,425.29
2019-01-04T11:54:03.763Z,425.97
2019-01-04T11:55:03.801Z,425.73
2019-01-04T11:56:03.718Z,427.62
2019-01-04T11:57:03.731Z,425.67
2019-01-04T11:58:03.700Z,427.11
2019-01-04T11:59:03.820Z,425.50
2019-01-04T12:00:03.638Z,426.72
2019-01-04T12:01:03.647Z,423.70
2019-01-04T12:02:03.632Z,425.15
2019-01-04T12:03:03.778Z,425.61
2019-01-04T12:04:03.623Z,425.06
2019-01-04T12:05:04.373Z,426.19
2019-01-04T12:06:03.802Z,425.41
2019-01-04T12:07:03.575Z,425.20
2019-01-04T12:08:03.579Z,425.67
2019-01-04T12:09:03.572Z,424.39
2019-01-04T12:10:03.779Z,426.97
2019-01-04T12:11:03.552Z,426.05
2019-01-04T12:12:03.538Z,424.22
2019-01-04T12:13:03.537Z,425.35
2019-01-04T12:14:03.502Z,425.47
2019-01-04T12:15:04.531Z,426.09
2019-01-04T12:16:03.667Z,425.99
2019-01-04T12:17:03.452Z,425.77
2019-01-04T12:18:03.477Z,426.02
2019-01-04T12:19:03.412Z,426.15
2019-01-04T12:20:03.459Z,424.18
2019-01-04T12:21:03.465Z,426.00
2019-01-04T12:22:04.307Z,426.41
2019-01-04T12:23:04.293Z,424.53
2019-01-04T12:24:03.403Z,424.18
2019-01-04T12:25:03.436Z,424.78
2019-01-04T12:26:03.382Z,425.73
2019-01-04T12:27:03.426Z,427.59
2019-01-04T12:28:04.615Z,428.18
2019-01-04T12:29:03.319Z,424.47
2019-01-04T12:30:04.848Z,425.29
2019-01-04T12:31:03.312Z,426.19
2019-01-04T12:32:03.336Z,424.50